Elmaton, TX (77440)

1:00 PM CST on January 16, 2018 (GMT -0600)
Barber House | | Change Station
Active Advisory: Winter Storm Warning Active Notice: Public Information Statement

Elev 60 ft 28.97 °N, 96.07 °W | Updated 39 seconds ago

Overcast
Overcast
28.6 °F
Feels Like 20 °F
N
8.5
Wind Variable Wind from North
Gusts 9.0 mph

Today
High -- | Low -- °F
--% Chance of Precip.
Yesterday
High -- | Low -- °F
Precip. -- in
Pressure 30.61 in
Visibility 4.0 miles
Clouds Overcast 1400 ft
Windchill 20 °F
Dew Point 26 °F
Humidity 90%
Rainfall 0.04 in
Snow Depth Not available.
7:18 AM 5:50 PM
Waning Crescent, 0% visible
METAR KPSX 161853Z AUTO 36019G30KT 4SM UP BR OVC014 M02/M02 A3061 RMK AO2 PK WND 36035/1831 UPB44SNE44 SLP364 P0000 T10171022
Pressure 30.61 in
Visibility 4.0 miles
Clouds Overcast 1400 ft
Windchill 20 °F
Dew Point 26 °F
Humidity 90%
Rainfall 0.04 in
Snow Depth Not available.
7:18 AM 5:50 PM
Waning Crescent, 0% visible
METAR KPSX 161853Z AUTO 36019G30KT 4SM UP BR OVC014 M02/M02 A3061 RMK AO2 PK WND 36035/1831 UPB44SNE44 SLP364 P0000 T10171022

Get Your Daily Forecast Email!

Thanks for signing up!

Be on the lookout for a verification email in your inbox.

You'll start receiving severe weather alerts in your inbox..

×

10-Day Weather Forecast

Almanac

Astronomy

Jan. 16, 2018 Rise Set
Actual Time
Civil Twilight
Nautical Twilight
Astronomical Twilight
Moon
Length of Visible Light
Length of Day
Tomorrow will be .
, % of the Moon is Illuminated

Today's Extremes

State Highs State Lows

Community

WunderPhotos

Category 6

Welcome to Category 6. This is the collective home for Weather Underground's featured writeups by Dr. Jeff Masters (right), Bob Henson (left), Chris Burt, and other regular contributors.

Nearby

Air Quality

  Air Quality AQ Index Pollutant
Not available.

Snow Depth

Station Depth Elevation

Earthquake Activity

City Distance Mag. Time & Date
Minimum magnitude displayed is 2.5.

Coastal Water Temperatures

Place Temperature

Stations

Nearby Weather Stations

Station Location Temp. Windchill Dew Point Humidity Wind Precip. Elev Updated Type
                   

Watches & Warnings

Winter Storm Warning
Issued: 9:54 AM CST Jan. 16, 2018 – National Weather Service

... Winter Storm Warning in effect until midnight CST tonight...

* what... freezing rain causing ice accumulations mainly around a
few hundredths to one tenth of an inch with pockets of higher
amounts above one eighth of an inch. There may also be small
accumulations of sleet.

* Where... mainly south of Interstate 10.

* When... through this afternoon and evening.

* Main impact... hazardous travel conditions on roads, overpasses
and bridges.

Precautionary/preparedness actions...


A Winter Storm Warning means significant amounts of snow...
sleet... and ice are expected or occurring. Strong winds are also
possible. This will make travel very hazardous or impossible.